Accueil
METAR-TAF:

METAR-TAF

Aéroports :

Aérodrome de Samedan-Engadin

Saint-Moritz, Suisse

latitude: 46-32-03N, longitude: 9-53-03E, altitude: 1707 m

Observation

Le bulletin a été fait il y a 40 minutes, à 03:20 UTC
Vent calme
Température 3°C
Humidité 93%
Pression 1014 hPa
Visibilité 10 km ou plus
pas de nuages en-dessous de 1500 mètres et pas de cumulonimbus.

METAR: LSZS 060320Z AUTO 00000KT CAVOK 03/02 Q1014

Heure: 06:00 (04:00 UTC)

Prévision

Le bulletin a été fait il y a 13 heures et 35 minutes, à 14:25 UTC
Prévision valable du 05 à 15 UTC au 05 à 24 UTC
Vent 2 kt de direction variable
Visibilité 10 km ou plus
Nuages fragmentés à une hauteur de 6000 ft
Probabilité 30% :
Temporairement
du 05 à 16 UTC au 05 à 18 UTC
Nuages épars à une hauteur de 4000 ft, Cumulus congestus.
averses de pluie

TAF: LSZS 051425Z 0515/0524 VRB02KT 9999 BKN060 TX15/0515Z PROB30 TEMPO 0516/0518 SHRA SCT040TCU

Observations et prévisions météorologiques de plus de 4000 aéroports (messages METAR et TAF).

Les stations disponibles sont représentées par des disques jaunes et rouges sur la carte.

Passer la souris dessus pour voir le nom de la station.

Cliquer dessus pour voir les observations et prévisions météorologiques.

Pour changer de carte: cliquez sur les boutons verts avec une croix noire pour zoomer, sur le bouton vert avec un tiret pour effectuer un zoom arrière, ou sur les flèches vertes pour les cartes adjacentes.


METAR-TAF: